Thunder radar more information blitzortung!


Radar de pluja more information rain snow radar


Visita la nostra xarxa de llocs de meteo:

Template documentation
and downloads

And another site



No particular awareness of the weather is required.    There are no Weather-warnings

Pagina Historial Weather Underground text

Diari Resum Agost 27, 2017 Unitats:  Imperial    Mètric   Tant
« Previous Dia
SegĂźent Dia »
Diari Setmana Mensual Anual Personalitzada
  Maxima: Minima: Media:
Temperatura: 89.2 °F 69.8 °F 80.4 °F
Punt de rosada: 70 °F 62.2 °F 67.1 °F
Humitat: 86 % 49 % 65 %
Wind Speed: 13.8 mph 0 mph 4.7 mph
RĂ fegues de vent: 13.8 mph - -
Vent:- - SSE
Pression baro: 30 in 29.9 in -
Precipitacions: 0 in    
Historical Graphs
 
 
Dades de taula per Agost 27, 2017
Temps Temperatura Punt de rosada Pression baro Vent Wind Speed RĂ fegues de vent Humitat Rainfall Rate (Hourly)
00:03 75.6 °F 67.1 °F 30 in East 2.3 mph 2.3 mph 75 % 0 in
00:05 72.3 °F 66.2 °F 29.9 in Calm   2 mph 81 % 0 in
00:08 75.6 °F 67.1 °F 30 in East 2.6 mph 2.6 mph 75 % 0 in
00:15 72.3 °F 66.2 °F 29.9 in Calm     81 % 0 in
00:25 72.3 °F 66.2 °F 29.9 in Calm   1 mph 81 % 0 in
00:35 72.3 °F 66.6 °F 30 in Calm     82 % 0 in
00:45 72.3 °F 66.6 °F 30 in WNW 1 mph 1 mph 82 % 0 in
00:55 72.3 °F 66.6 °F 30 in NNW 1 mph 2 mph 82 % 0 in
01:05 72.1 °F 66 °F 29.9 in NNE 1 mph 3 mph 81 % 0 in
01:15 71.6 °F 65.5 °F 29.9 in Calm   2 mph 81 % 0 in
01:25 71.2 °F 65.5 °F 29.9 in Calm     82 % 0 in
01:35 71.2 °F 65.5 °F 30 in Calm     82 % 0 in
01:45 71.1 °F 65.3 °F 30 in SW 1 mph 2 mph 82 % 0 in
01:55 71.1 °F 65.7 °F 30 in Calm   1 mph 83 % 0 in
02:05 70.9 °F 65.8 °F 29.9 in Calm     84 % 0 in
02:15 70.9 °F 65.5 °F 29.9 in West 1 mph 1 mph 83 % 0 in
02:25 70.9 °F 65.8 °F 29.9 in Calm   2 mph 84 % 0 in
02:35 70.9 °F 65.8 °F 30 in NW 1 mph   84 % 0 in
02:45 70.2 °F 64.8 °F 30 in NNW 1 mph 2 mph 83 % 0 in
02:55 70.2 °F 65.1 °F 30 in East 1 mph 2 mph 84 % 0 in
03:05 70 °F 64.9 °F 30 in Calm     84 % 0 in
03:15 70 °F 65.3 °F 30 in ENE 1 mph 2 mph 85 % 0 in
03:25 70 °F 65.3 °F 30 in ENE 1 mph 2 mph 85 % 0 in
03:35 69.8 °F 65.1 °F 29.9 in Calm   3 mph 85 % 0 in
03:45 70 °F 65.3 °F 29.9 in Calm   2 mph 85 % 0 in
03:55 70 °F 65.3 °F 29.9 in Calm   2 mph 85 % 0 in
04:05 70.5 °F 65.8 °F 29.9 in Calm   2 mph 85 % 0 in
04:15 71.4 °F 66.9 °F 30 in Calm   1 mph 86 % 0 in
04:25 71.6 °F 66.7 °F 30 in NE 1 mph 3 mph 85 % 0 in
04:35 71.6 °F 66.6 °F 30 in ENE 1 mph 2 mph 84 % 0 in
04:45 72 °F 66.9 °F 30 in NE 1 mph 2 mph 84 % 0 in
04:55 72 °F 66.6 °F 30 in NE 3 mph 3 mph 83 % 0 in
05:05 72.5 °F 66.9 °F 30 in NE 2 mph 3 mph 83 % 0 in
10:09 76.1 °F 68 °F 30 in East 5.8 mph 5.8 mph 76 % 0 in
10:12 76.3 °F 68.2 °F 30 in East 2.4 mph 2.9 mph 76 % 0 in
10:17 76.5 °F 68.4 °F 30 in East 4.6 mph 4.6 mph 76 % 0 in
10:22 76.8 °F 68.7 °F 30 in NNE 4.6 mph 4.6 mph 76 % 0 in
10:27 77 °F 68.5 °F 30 in NE 4.6 mph 4.6 mph 75 % 0 in
10:32 77.5 °F 69.1 °F 30 in NNE 3.5 mph 3.5 mph 75 % 0 in
10:37 78.3 °F 69.3 °F 30 in ESE 5.8 mph 5.8 mph 74 % 0 in
10:42 78.3 °F 68.9 °F 30 in East 5.8 mph 5.8 mph 73 % 0 in
10:47 78.3 °F 68.9 °F 30 in ENE 8.1 mph 8.1 mph 73 % 0 in
10:52 78.6 °F 68.7 °F 30 in ESE 6.9 mph 6.9 mph 72 % 0 in
10:57 79.7 °F 70 °F 30 in ESE 4.9 mph 4.9 mph 72 % 0 in
11:02 80.6 °F 70 °F 30 in East 5.8 mph 5.8 mph 70 % 0 in
11:07 80.8 °F 69.6 °F 30 in ESE 4.6 mph 4.6 mph 69 % 0 in
11:12 81.3 °F 69.3 °F 30 in SE 4.9 mph 4.9 mph 67 % 0 in
11:17 80.8 °F 68.7 °F 30 in South 8.1 mph 8.1 mph 67 % 0 in
11:22 82 °F 70 °F 30 in ENE 4.6 mph 4.6 mph 67 % 0 in
11:27 81.3 °F 69.3 °F 30 in ESE 3.5 mph 3.5 mph 67 % 0 in
11:32 81.9 °F 69.4 °F 30 in ESE 8.1 mph 8.1 mph 66 % 0 in
11:37 81.5 °F 69.1 °F 30 in East 6.2 mph 6.2 mph 66 % 0 in
11:42 81.9 °F 68.9 °F 30 in NE 5.8 mph 5.8 mph 65 % 0 in
11:47 81.7 °F 68.7 °F 30 in ENE 3.5 mph 3.5 mph 65 % 0 in
11:52 82.4 °F 69.1 °F 30 in East 5.8 mph 5.8 mph 64 % 0 in
11:57 82.2 °F 69.3 °F 30 in ESE 5.8 mph 5.8 mph 65 % 0 in
12:02 82.9 °F 69.4 °F 30 in ENE 4.6 mph 4.6 mph 64 % 0 in
12:07 83.3 °F 69.8 °F 30 in NE 6.2 mph 6.2 mph 64 % 0 in
12:12 83.5 °F 69.6 °F 30 in ESE 5.8 mph 5.8 mph 63 % 0 in
12:22 84.2 °F 69.8 °F 30 in NE 5.8 mph 5.9 mph 62 % 0 in
12:27 83.7 °F 69.6 °F 30 in ENE 5.8 mph 5.8 mph 63 % 0 in
12:32 83.5 °F 69.1 °F 30 in SE 4.6 mph 4.6 mph 62 % 0 in
12:37 85.1 °F 69.6 °F 30 in East 6.9 mph 6.9 mph 60 % 0 in
12:42 84 °F 69.1 °F 30 in East 7.1 mph 7.1 mph 61 % 0 in
12:47 84 °F 69.1 °F 30 in East 8.1 mph 8.1 mph 61 % 0 in
12:52 84.6 °F 68.7 °F 30 in East 5.8 mph 5.8 mph 59 % 0 in
12:57 84.6 °F 69.1 °F 30 in ESE 4.6 mph 4.6 mph 60 % 0 in
13:02 84.2 °F 68.7 °F 30 in NE 5.8 mph 5.8 mph 60 % 0 in
13:07 84.2 °F 68.7 °F 30 in East 2.4 mph 2.6 mph 60 % 0 in
13:12 83.8 °F 69.1 °F 30 in ENE 5.8 mph 5.8 mph 61 % 0 in
13:17 83.7 °F 68.7 °F 30 in East 5.6 mph 5.6 mph 61 % 0 in
13:22 84.2 °F 68.7 °F 30 in ENE 3.5 mph 3.5 mph 60 % 0 in
13:27 85.5 °F 69.4 °F 30 in ESE 5.8 mph 5.8 mph 59 % 0 in
13:32 85.1 °F 68.7 °F 30 in ESE 10.4 mph 10.4 mph 58 % 0 in
13:37 85.1 °F 69.3 °F 30 in ENE 4.6 mph 4.6 mph 59 % 0 in
13:42 86 °F 69.4 °F 30 in ESE 3.3 mph 3.3 mph 58 % 0 in
13:47 86.2 °F 69.6 °F 30 in ESE 4.6 mph 4.6 mph 58 % 0 in
13:52 87.1 °F 70 °F 30 in NNE 5.8 mph 5.8 mph 57 % 0 in
13:57 87.1 °F 70 °F 30 in ENE 3.5 mph 3.5 mph 57 % 0 in
14:02 87.6 °F 70 °F 30 in ESE 3.5 mph 3.5 mph 56 % 0 in
14:07 88.7 °F 70 °F 30 in East 4.6 mph 4.6 mph 54 % 0 in
14:12 87.8 °F 68.5 °F 29.9 in ESE 3.5 mph 3.5 mph 53 % 0 in
14:17 87.6 °F 68.9 °F 29.9 in ESE 5.8 mph 5.8 mph 54 % 0 in
14:22 88.2 °F 69.4 °F 29.9 in ENE 4.6 mph 4.6 mph 54 % 0 in
14:27 87.1 °F 67.8 °F 29.9 in ESE 8.1 mph 8.1 mph 53 % 0 in
14:32 88.3 °F 69.1 °F 29.9 in ENE 3.5 mph 3.5 mph 53 % 0 in
14:37 88.3 °F 69.1 °F 29.9 in ESE 3.8 mph 3.8 mph 53 % 0 in
14:42 88.2 °F 67.8 °F 29.9 in ENE 6.9 mph 6.9 mph 51 % 0 in
14:47 88.2 °F 67.8 °F 29.9 in ESE 9.2 mph 9.2 mph 51 % 0 in
14:52 88.3 °F 68.5 °F 29.9 in ESE 8.1 mph 8.1 mph 52 % 0 in
14:57 88.3 °F 67.8 °F 29.9 in ENE 8.1 mph 8.1 mph 51 % 0 in
15:02 88.5 °F 67.5 °F 29.9 in SE 8.1 mph 8.1 mph 50 % 0 in
15:07 88.5 °F 67.5 °F 29.9 in ENE 8.1 mph 8.1 mph 50 % 0 in
15:12 88.9 °F 67.8 °F 29.9 in NE 8.1 mph 8.1 mph 50 % 0 in
15:17 88.7 °F 67.1 °F 29.9 in ESE 9.2 mph 9.2 mph 49 % 0 in
15:22 88.9 °F 67.8 °F 29.9 in ESE 8.1 mph 8.1 mph 50 % 0 in
15:27 88.9 °F 67.8 °F 29.9 in South 8.7 mph 8.7 mph 50 % 0 in
15:32 88.5 °F 66.9 °F 29.9 in East 8.1 mph 8.1 mph 49 % 0 in
15:37 89.2 °F 67.6 °F 29.9 in ESE 6.9 mph 6.9 mph 49 % 0 in
15:42 88.7 °F 67.1 °F 29.9 in SE 8.1 mph 8.1 mph 49 % 0 in
15:47 88.7 °F 67.1 °F 29.9 in ESE 8.1 mph 8.1 mph 49 % 0 in
15:52 89.1 °F 67.5 °F 29.9 in SE 6.2 mph 6.2 mph 49 % 0 in
15:57 88.7 °F 67.1 °F 29.9 in NE 8.1 mph 8.1 mph 49 % 0 in
16:02 88.7 °F 67.6 °F 29.9 in ESE 7.8 mph 7.8 mph 50 % 0 in
16:07 87.6 °F 67.3 °F 29.9 in East 8.1 mph 8.1 mph 51 % 0 in
16:12 87.4 °F 67.6 °F 29.9 in ENE 6.9 mph 6.9 mph 52 % 0 in
16:17 86.9 °F 67.3 °F 29.9 in ENE 10.5 mph 10.5 mph 52 % 0 in
16:22 86.2 °F 66.9 °F 29.9 in ESE 9.2 mph 9.2 mph 53 % 0 in
16:27 85.6 °F 67.1 °F 29.9 in SE 7.1 mph 7.1 mph 54 % 0 in
16:32 86.2 °F 67.6 °F 29.9 in ESE 8.1 mph 8.1 mph 54 % 0 in
16:37 85.8 °F 67.3 °F 29.9 in ESE 8.1 mph 8.1 mph 54 % 0 in
16:42 86 °F 68 °F 29.9 in East 9.2 mph 9.2 mph 55 % 0 in
16:47 86 °F 68 °F 29.9 in SSE 10.4 mph 10.4 mph 55 % 0 in
16:52 86 °F 68.5 °F 29.9 in East 10.4 mph 10.4 mph 56 % 0 in
16:57 86.7 °F 68.5 °F 29.9 in ESE 6.9 mph 6.9 mph 55 % 0 in
17:02 87.4 °F 69.3 °F 29.9 in SW 3.5 mph 3.5 mph 55 % 0 in
17:07 87.8 °F 69.6 °F 29.9 in WSW 5.8 mph 5.8 mph 55 % 0 in
17:12 87.3 °F 69.6 °F 29.9 in SW 6.2 mph 6.2 mph 56 % 0 in
17:17 86.5 °F 69.1 °F 29.9 in SW 6.4 mph 6.4 mph 56 % 0 in
17:22 86 °F 69.1 °F 29.9 in South 5.9 mph 5.9 mph 57 % 0 in
17:27 86 °F 69.1 °F 29.9 in SW 6.9 mph 6.9 mph 57 % 0 in
17:32 86.5 °F 69.4 °F 29.9 in SSW 6.9 mph 6.9 mph 57 % 0 in
17:37 85.6 °F 68.7 °F 29.9 in SW 13.8 mph 13.8 mph 57 % 0 in
17:38 85.6 °F 68.7 °F 29.9 in SW 9.2 mph 9.2 mph 57 % 0 in
17:43 85.1 °F 68.7 °F 29.9 in SW 7.8 mph 7.8 mph 58 % 0 in
17:48 84.9 °F 68.5 °F 29.9 in SW 9.2 mph 9.2 mph 58 % 0 in
17:53 85.3 °F 68.7 °F 29.9 in SW 10.7 mph 10.7 mph 58 % 0 in
17:58 84.9 °F 68.5 °F 29.9 in SW 8.1 mph 8.1 mph 58 % 0 in
18:03 84.2 °F 67.8 °F 29.9 in SW 9.2 mph 9.2 mph 58 % 0 in
18:08 84 °F 68.5 °F 29.9 in SSW 8.1 mph 8.1 mph 60 % 0 in
18:13 84.4 °F 68.5 °F 29.9 in SW 9.2 mph 9.2 mph 59 % 0 in
18:18 83.8 °F 68.5 °F 29.9 in West 12.7 mph 12.7 mph 60 % 0 in
18:23 83.5 °F 68.5 °F 29.9 in SW 5.8 mph 5.8 mph 61 % 0 in
18:28 83.3 °F 68.4 °F 29.9 in SW 5.8 mph 5.8 mph 61 % 0 in
18:33 82.4 °F 67.6 °F 29.9 in WSW 10.4 mph 10.4 mph 61 % 0 in
18:38 81.7 °F 67.5 °F 29.9 in SW 11.5 mph 11.5 mph 62 % 0 in
18:43 81.3 °F 67.5 °F 29.9 in West 10.4 mph 10.4 mph 63 % 0 in
18:48 80.6 °F 66.7 °F 29.9 in SW 8.1 mph 8.1 mph 63 % 0 in
18:53 80.2 °F 66.9 °F 29.9 in SW 8.1 mph 8.1 mph 64 % 0 in
18:58 80.1 °F 67.3 °F 29.9 in West 5.8 mph 5.8 mph 65 % 0 in
19:03 80.1 °F 67.3 °F 29.9 in WSW 5.8 mph 5.8 mph 65 % 0 in
19:08 79.7 °F 67.3 °F 29.9 in SW 10.4 mph 10.4 mph 66 % 0 in
19:13 79.5 °F 67.3 °F 29.9 in SSW 10.4 mph 10.4 mph 66 % 0 in
19:18 79.3 °F 66.9 °F 29.9 in SSW 5.8 mph 5.8 mph 66 % 0 in
19:23 79.3 °F 66.9 °F 29.9 in SSW 6.9 mph 6.9 mph 66 % 0 in
19:28 79.2 °F 66.7 °F 29.9 in SW 9.8 mph 9.8 mph 66 % 0 in
19:33 79 °F 67.1 °F 29.9 in SW 3.5 mph 3.5 mph 67 % 0 in
19:38 79 °F 67.1 °F 29.9 in WSW 3.5 mph 3.5 mph 67 % 0 in
19:43 79 °F 67.1 °F 29.9 in SW 3.5 mph 3.5 mph 67 % 0 in
19:48 79 °F 67.1 °F 29.9 in WSW 3.5 mph 3.5 mph 67 % 0 in
19:50 78.8 °F 66.9 °F 29.9 in South 4.6 mph 4.6 mph 67 % 0 in
19:55 79 °F 67.1 °F 29.9 in SSW 3.5 mph 3.5 mph 67 % 0 in
20:00 79 °F 67.1 °F 29.9 in WSW 2.3 mph 2.3 mph 67 % 0 in
20:05 79 °F 67.1 °F 29.9 in ESE 1.2 mph   67 % 0 in
20:10 79 °F 67.1 °F 29.9 in West 2.3 mph 2.3 mph 67 % 0 in
20:15 79 °F 67.1 °F 29.9 in West 1.2 mph   67 % 0 in
20:16 79 °F 67.1 °F 29.9 in West 1.2 mph   67 % 0 in
20:21 79 °F 67.1 °F 29.9 in NNE 1.6 mph 1.6 mph 67 % 0 in
20:26 79 °F 67.1 °F 30 in SW 2.3 mph 2.3 mph 67 % 0 in
20:31 78.6 °F 66.7 °F 30 in West 3.5 mph 3.5 mph 67 % 0 in
20:36 78.4 °F 66.6 °F 30 in WNW 4.6 mph 4.6 mph 67 % 0 in
20:41 78.6 °F 66.7 °F 29.9 in South 3.5 mph 3.5 mph 67 % 0 in
20:46 79.2 °F 66.7 °F 29.9 in West 3.5 mph 3.5 mph 66 % 0 in
20:51 79.5 °F 66.7 °F 29.9 in SSW 2.3 mph   65 % 0 in
20:56 79.5 °F 66.7 °F 29.9 in Calm     65 % 0 in
21:01 79.9 °F 66.6 °F 29.9 in SE 1.6 mph 1.6 mph 64 % 0 in
21:06 79.7 °F 66.4 °F 29.9 in SW 2 mph   64 % 0 in
21:11 79.3 °F 66.6 °F 29.9 in WSW 2.3 mph 2.3 mph 65 % 0 in
21:16 79 °F 66.2 °F 29.9 in WSW 0.9 mph   65 % 0 in
21:21 78.6 °F 65.8 °F 29.9 in SSW 3.5 mph 3.5 mph 65 % 0 in
21:26 78.1 °F 65.8 °F 29.9 in WSW 2.3 mph 2.3 mph 66 % 0 in
21:31 77.9 °F 66 °F 29.9 in WSW 2.3 mph 2.3 mph 67 % 0 in
21:36 77.5 °F 65.7 °F 29.9 in SSE 2.3 mph 2.3 mph 67 % 0 in
21:41 77.4 °F 66 °F 29.9 in West 2.3 mph 2.3 mph 68 % 0 in
21:46 77.2 °F 65.5 °F 29.9 in WSW 1.6 mph 1.6 mph 67 % 0 in
21:51 77.2 °F 65.8 °F 29.9 in SSW 2 mph   68 % 0 in
21:56 77.4 °F 65.5 °F 29.9 in West 1.4 mph   67 % 0 in
22:01 77.5 °F 65.3 °F 29.9 in WSW 2.4 mph 2.4 mph 66 % 0 in
22:06 77.5 °F 64.8 °F 29.9 in West 2.3 mph 2.3 mph 65 % 0 in
22:11 77.7 °F 64.9 °F 29.9 in SW 2.3 mph 2.3 mph 65 % 0 in
22:16 77.5 °F 65.3 °F 29.9 in SW 1.2 mph   66 % 0 in
22:21 77.2 °F 64.6 °F 29.9 in SW 2.3 mph 2.3 mph 65 % 0 in
22:26 77.2 °F 64 °F 29.9 in SW 2.3 mph 2.3 mph 64 % 0 in
22:31 77 °F 63.9 °F 29.9 in SW 1.2 mph 1.2 mph 64 % 0 in
22:36 77 °F 63.9 °F 29.9 in SW 2.3 mph 2.3 mph 64 % 0 in
22:41 76.8 °F 63.7 °F 29.9 in WSW 2.3 mph 2.4 mph 64 % 0 in
22:46 76.8 °F 63.3 °F 29.9 in WSW 1.4 mph 2 mph 63 % 0 in
22:51 76.6 °F 63.1 °F 29.9 in SW 3.5 mph 3.5 mph 63 % 0 in
22:56 76.6 °F 63.1 °F 29.9 in West 2.3 mph 2.3 mph 63 % 0 in
23:01 76.5 °F 62.4 °F 29.9 in SW 1.2 mph 1.2 mph 62 % 0 in
23:06 76.5 °F 62.4 °F 29.9 in WSW 2 mph 2 mph 62 % 0 in
23:11 76.5 °F 62.4 °F 29.9 in WSW 2.4 mph 2.4 mph 62 % 0 in
23:16 76.6 °F 62.6 °F 29.9 in WSW 2.4 mph 2.4 mph 62 % 0 in
23:21 76.8 °F 62.2 °F 29.9 in WSW 4.6 mph 4.6 mph 61 % 0 in
23:26 76.8 °F 62.2 °F 29.9 in West 3.5 mph 3.5 mph 61 % 0 in
23:31 76.6 °F 62.2 °F 29.9 in SW 2.4 mph 2.4 mph 61 % 0 in
23:36 76.5 °F 62.4 °F 29.9 in WSW 4.6 mph 4.6 mph 62 % 0 in
23:41 76.3 °F 62.8 °F 29.9 in WSW 4.6 mph 4.6 mph 63 % 0 in
23:46 76.1 °F 63 °F 29.9 in SSW 4.6 mph 4.6 mph 64 % 0 in
23:51 75.9 °F 63.3 °F 29.9 in SW 3.1 mph 3.1 mph 65 % 0 in
23:56 75.6 °F 63 °F 29.9 in South 3.5 mph 3.5 mph 65 % 0 in
Meteo Sesrovires
Elogis d' Weather Underground - 3.5 mb

Guio original per  Jim McMurry - jmcmurry@mwt.net Adaptat per a la plantilla per  Wim van der Kuil - Leuven-Template.eu

Trobareu la nostra informacio del temps tambe a:

Weather Underground

AWEKAS